Time,TemperatureF,DewpointF,PressureIn,WindDirection,WindDirectionDegrees,WindSpeedMPH,WindSpeedGustMPH,Humidity,HourlyPrecipIn,Conditions,Clouds,dailyrainin,SoftwareType,DateUTC
2013-01-15 01:03:00,36.0,25.0,-100.00,North,-999,0.0,-999.0,63,-99.99,,,0.02,,2013-01-15 06:03:00,
2013-01-15 01:12:00,36.0,25.0,-100.00,North,-999,0.0,-999.0,63,-99.99,,,0.02,,2013-01-15 06:12:00,
2013-01-15 01:22:00,36.0,25.0,-100.00,North,-999,0.0,-999.0,63,-99.99,,,0.02,,2013-01-15 06:22:00,
2013-01-15 01:33:00,36.0,25.0,-100.00,North,-999,0.0,-999.0,63,-99.99,,,0.02,,2013-01-15 06:33:00,
2013-01-15 01:43:00,36.0,25.0,-100.00,North,-999,0.0,-999.0,63,-99.99,,,0.02,,2013-01-15 06:43:00,
2013-01-15 02:02:00,35.0,23.0,-100.00,North,-999,0.0,-999.0,60,0.00,,,0.02,,2013-01-15 07:02:00,
2013-01-15 02:12:00,35.0,23.0,-100.00,North,-999,0.0,-999.0,60,0.00,,,0.02,,2013-01-15 07:12:00,
2013-01-15 02:22:00,35.0,23.0,-100.00,North,-999,0.0,-999.0,60,0.00,,,0.02,,2013-01-15 07:22:00,
2013-01-15 02:33:00,35.0,23.0,-100.00,North,-999,0.0,-999.0,60,0.00,,,0.02,,2013-01-15 07:33:00,
2013-01-15 02:42:00,35.0,23.0,-100.00,North,-999,0.0,-999.0,60,0.00,,,0.02,,2013-01-15 07:42:00,
2013-01-15 03:02:00,35.0,23.0,-100.00,North,1,0.0,-999.0,62,0.00,,,0.02,,2013-01-15 08:02:00,
2013-01-15 03:12:00,35.0,23.0,-100.00,North,1,0.0,-999.0,62,0.00,,,0.02,,2013-01-15 08:12:00,
2013-01-15 03:22:00,35.0,23.0,-100.00,North,1,0.0,-999.0,62,0.00,,,0.02,,2013-01-15 08:22:00,
2013-01-15 03:33:00,35.0,23.0,-100.00,North,1,0.0,-999.0,62,0.00,,,0.02,,2013-01-15 08:33:00,
2013-01-15 03:43:00,35.0,23.0,-100.00,North,1,0.0,-999.0,62,0.00,,,0.02,,2013-01-15 08:43:00,
2013-01-15 04:02:00,35.0,24.0,-100.00,North,-999,0.0,-999.0,65,0.00,,,0.02,,2013-01-15 09:02:00,
2013-01-15 04:12:00,35.0,24.0,-100.00,North,-999,0.0,-999.0,65,0.00,,,0.02,,2013-01-15 09:12:00,
2013-01-15 04:22:00,35.0,24.0,-100.00,North,-999,0.0,-999.0,65,0.00,,,0.02,,2013-01-15 09:22:00,
2013-01-15 04:33:00,35.0,24.0,-100.00,North,-999,0.0,-999.0,65,0.00,,,0.02,,2013-01-15 09:33:00,
2013-01-15 04:42:00,35.0,24.0,-100.00,North,-999,0.0,-999.0,65,0.00,,,0.02,,2013-01-15 09:42:00,
2013-01-15 05:02:00,32.0,24.0,-100.00,North,-999,0.0,-999.0,71,0.00,,,0.02,,2013-01-15 10:02:00,
2013-01-15 05:12:00,32.0,24.0,-100.00,North,-999,0.0,-999.0,71,0.00,,,0.02,,2013-01-15 10:12:00,
2013-01-15 05:22:00,32.0,24.0,-100.00,North,-999,0.0,-999.0,71,0.00,,,0.02,,2013-01-15 10:22:00,
2013-01-15 05:32:00,32.0,24.0,-100.00,North,-999,0.0,-999.0,71,0.00,,,0.02,,2013-01-15 10:32:00,
2013-01-15 05:42:00,32.0,24.0,-100.00,North,-999,0.0,-999.0,71,0.00,,,0.02,,2013-01-15 10:42:00,
2013-01-15 06:03:00,30.0,23.0,-100.00,NE,47,0.0,-999.0,76,0.00,,,0.02,,2013-01-15 11:03:00,
2013-01-15 06:12:00,30.0,23.0,-100.00,NE,47,0.0,-999.0,76,0.00,,,0.02,,2013-01-15 11:12:00,
2013-01-15 06:23:00,30.0,23.0,-100.00,NE,47,0.0,-999.0,76,0.00,,,0.02,,2013-01-15 11:23:00,
2013-01-15 06:33:00,30.0,23.0,-100.00,NE,47,0.0,-999.0,76,0.00,,,0.02,,2013-01-15 11:33:00,
2013-01-15 06:43:00,30.0,23.0,-100.00,NE,47,0.0,-999.0,76,0.00,,,0.02,,2013-01-15 11:43:00,
2013-01-15 07:03:00,28.0,23.0,-100.00,East,94,0.0,-999.0,83,0.00,,,0.02,,2013-01-15 12:03:00,
2013-01-15 07:12:00,28.0,23.0,-100.00,East,94,0.0,-999.0,83,0.00,,,0.02,,2013-01-15 12:12:00,
2013-01-15 07:22:00,28.0,23.0,-100.00,East,94,0.0,-999.0,83,0.00,,,0.02,,2013-01-15 12:22:00,
2013-01-15 07:33:00,28.0,23.0,-100.00,East,94,0.0,-999.0,83,0.00,,,0.02,,2013-01-15 12:33:00,
2013-01-15 07:43:00,28.0,23.0,-100.00,East,94,0.0,-999.0,83,0.00,,,0.02,,2013-01-15 12:43:00,
2013-01-15 08:03:00,28.0,23.0,-100.00,ENE,69,0.0,-999.0,83,0.00,,,0.02,,2013-01-15 13:03:00,
2013-01-15 08:13:00,28.0,23.0,-100.00,ENE,69,0.0,-999.0,83,0.00,,,0.02,,2013-01-15 13:13:00,
2013-01-15 08:23:00,28.0,23.0,-100.00,ENE,69,0.0,-999.0,83,0.00,,,0.02,,2013-01-15 13:23:00,
2013-01-15 08:33:00,28.0,23.0,-100.00,ENE,69,0.0,-999.0,83,0.00,,,0.02,,2013-01-15 13:33:00,
2013-01-15 08:43:00,28.0,23.0,-100.00,ENE,69,0.0,-999.0,83,0.00,,,0.02,,2013-01-15 13:43:00,
2013-01-15 09:03:00,30.0,25.0,-100.00,North,-999,0.0,-999.0,80,0.00,,,0.02,,2013-01-15 14:03:00,
2013-01-15 09:13:00,30.0,25.0,-100.00,North,-999,0.0,-999.0,80,0.00,,,0.02,,2013-01-15 14:13:00,
2013-01-15 09:23:00,30.0,25.0,-100.00,North,-999,0.0,-999.0,80,0.00,,,0.02,,2013-01-15 14:23:00,
2013-01-15 09:33:00,30.0,25.0,-100.00,North,-999,0.0,-999.0,80,0.00,,,0.02,,2013-01-15 14:33:00,
2013-01-15 09:43:00,30.0,25.0,-100.00,North,-999,0.0,-999.0,80,0.00,,,0.02,,2013-01-15 14:43:00,
2013-01-15 10:03:00,34.0,24.0,-100.00,North,1,0.0,-999.0,65,0.00,,,0.02,,2013-01-15 15:03:00,
2013-01-15 10:13:00,34.0,24.0,-100.00,North,1,0.0,-999.0,65,0.00,,,0.02,,2013-01-15 15:13:00,
2013-01-15 10:23:00,34.0,24.0,-100.00,North,1,0.0,-999.0,65,0.00,,,0.02,,2013-01-15 15:23:00,
2013-01-15 10:33:00,34.0,24.0,-100.00,North,1,0.0,-999.0,65,0.00,,,0.02,,2013-01-15 15:33:00,
2013-01-15 10:43:00,34.0,24.0,-100.00,North,1,0.0,-999.0,65,0.00,,,0.02,,2013-01-15 15:43:00,
2013-01-15 11:23:00,36.0,19.0,-100.00,North,-999,0.0,-999.0,49,0.00,,,0.02,,2013-01-15 16:23:00,
2013-01-15 11:33:00,36.0,19.0,-100.00,North,-999,0.0,-999.0,49,0.00,,,0.02,,2013-01-15 16:33:00,
2013-01-15 11:43:00,36.0,19.0,-100.00,North,-999,0.0,-999.0,49,0.00,,,0.02,,2013-01-15 16:43:00,
2013-01-15 12:04:00,36.0,18.0,-100.00,North,-999,0.0,-999.0,48,0.00,,,0.02,,2013-01-15 17:04:00,
2013-01-15 12:13:00,36.0,18.0,-100.00,North,-999,0.0,-999.0,48,0.00,,,0.02,,2013-01-15 17:13:00,
2013-01-15 12:23:00,36.0,18.0,-100.00,North,-999,0.0,-999.0,48,0.00,,,0.02,,2013-01-15 17:23:00,
2013-01-15 12:33:00,36.0,18.0,-100.00,North,-999,0.0,-999.0,48,0.00,,,0.02,,2013-01-15 17:33:00,
2013-01-15 12:42:00,36.0,18.0,-100.00,North,-999,0.0,-999.0,48,0.00,,,0.02,,2013-01-15 17:42:00,
2013-01-15 13:03:00,37.0,17.0,-100.00,North,-999,0.0,-999.0,45,0.00,,,0.02,,2013-01-15 18:03:00,
2013-01-15 13:13:00,37.0,17.0,-100.00,North,-999,0.0,-999.0,45,0.00,,,0.02,,2013-01-15 18:13:00,
2013-01-15 13:23:00,37.0,17.0,-100.00,North,-999,0.0,-999.0,45,0.00,,,0.02,,2013-01-15 18:23:00,
2013-01-15 13:33:00,37.0,17.0,-100.00,North,-999,0.0,-999.0,45,0.00,,,0.02,,2013-01-15 18:33:00,
2013-01-15 13:43:00,37.0,17.0,-100.00,North,-999,0.0,-999.0,45,0.00,,,0.02,,2013-01-15 18:43:00,
2013-01-15 15:04:00,37.0,18.0,-100.00,North,1,0.0,-999.0,46,-99.99,,,0.00,,2013-01-15 20:04:00,
2013-01-15 15:12:00,37.0,18.0,-100.00,North,1,0.0,-999.0,46,-99.99,,,0.00,,2013-01-15 20:12:00,
2013-01-15 15:23:00,37.0,18.0,-100.00,North,1,0.0,-999.0,46,-99.99,,,0.00,,2013-01-15 20:23:00,
2013-01-15 15:33:00,37.0,18.0,-100.00,North,1,0.0,-999.0,46,-99.99,,,0.00,,2013-01-15 20:33:00,
2013-01-15 15:43:00,37.0,18.0,-100.00,North,1,0.0,-999.0,46,-99.99,,,0.00,,2013-01-15 20:43:00,
2013-01-15 16:03:00,35.0,17.0,-100.00,North,2,0.0,-999.0,48,0.00,,,0.00,,2013-01-15 21:03:00,
2013-01-15 16:13:00,35.0,17.0,-100.00,North,2,0.0,-999.0,48,0.00,,,0.00,,2013-01-15 21:13:00,
2013-01-15 16:23:00,35.0,17.0,-100.00,North,2,0.0,-999.0,48,0.00,,,0.00,,2013-01-15 21:23:00,
2013-01-15 16:34:00,35.0,17.0,-100.00,North,2,0.0,-999.0,48,0.00,,,0.00,,2013-01-15 21:34:00,
2013-01-15 16:43:00,35.0,17.0,-100.00,North,2,0.0,-999.0,48,0.00,,,0.00,,2013-01-15 21:43:00,
2013-01-15 17:03:00,34.0,19.0,-100.00,North,10,0.0,-999.0,53,0.00,,,0.00,,2013-01-15 22:03:00,
2013-01-15 17:12:00,34.0,19.0,-100.00,North,10,0.0,-999.0,53,0.00,,,0.00,,2013-01-15 22:12:00,
2013-01-15 17:23:00,34.0,19.0,-100.00,North,10,0.0,-999.0,53,0.00,,,0.00,,2013-01-15 22:23:00,
2013-01-15 17:33:00,34.0,19.0,-100.00,North,10,0.0,-999.0,53,0.00,,,0.00,,2013-01-15 22:33:00,
2013-01-15 17:43:00,34.0,19.0,-100.00,North,10,0.0,-999.0,53,0.00,,,0.00,,2013-01-15 22:43:00,
2013-01-15 18:03:00,33.0,19.0,-100.00,NNE,18,0.0,-999.0,56,0.00,,,0.00,,2013-01-15 23:03:00,
2013-01-15 18:13:00,33.0,19.0,-100.00,NNE,18,0.0,-999.0,56,0.00,,,0.00,,2013-01-15 23:13:00,
2013-01-15 18:23:00,33.0,19.0,-100.00,NNE,18,0.0,-999.0,56,0.00,,,0.00,,2013-01-15 23:23:00,
2013-01-15 18:33:00,33.0,19.0,-100.00,NNE,18,0.0,-999.0,56,0.00,,,0.00,,2013-01-15 23:33:00,
2013-01-15 18:43:00,33.0,19.0,-100.00,NNE,18,0.0,-999.0,56,0.00,,,0.00,,2013-01-15 23:43:00,
2013-01-15 19:03:00,32.0,16.0,-100.00,NNE,17,0.0,-999.0,52,0.00,,,0.00,,2013-01-16 00:03:00,
2013-01-15 19:13:00,32.0,16.0,-100.00,NNE,17,0.0,-999.0,52,0.00,,,0.00,,2013-01-16 00:13:00,
2013-01-15 19:23:00,32.0,16.0,-100.00,NNE,17,0.0,-999.0,52,0.00,,,0.00,,2013-01-16 00:23:00,
2013-01-15 19:33:00,32.0,16.0,-100.00,NNE,17,0.0,-999.0,52,0.00,,,0.00,,2013-01-16 00:33:00,
2013-01-15 19:43:00,32.0,16.0,-100.00,NNE,17,0.0,-999.0,52,0.00,,,0.00,,2013-01-16 00:43:00,
2013-01-15 20:03:00,32.0,16.0,-100.00,NNE,21,0.0,-999.0,52,0.00,,,0.00,,2013-01-16 01:03:00,
2013-01-15 20:12:00,32.0,16.0,-100.00,NNE,21,0.0,-999.0,52,0.00,,,0.00,,2013-01-16 01:12:00,
2013-01-15 20:23:00,32.0,16.0,-100.00,NNE,21,0.0,-999.0,52,0.00,,,0.00,,2013-01-16 01:23:00,
2013-01-15 20:33:00,32.0,16.0,-100.00,NNE,21,0.0,-999.0,52,0.00,,,0.00,,2013-01-16 01:33:00,
2013-01-15 20:43:00,32.0,16.0,-100.00,NNE,21,0.0,-999.0,52,0.00,,,0.00,,2013-01-16 01:43:00,
2013-01-15 21:03:00,30.0,19.0,-100.00,ESE,104,0.0,-999.0,64,0.00,,,0.00,,2013-01-16 02:03:00,
2013-01-15 21:12:00,30.0,19.0,-100.00,ESE,104,0.0,-999.0,64,0.00,,,0.00,,2013-01-16 02:12:00,
2013-01-15 21:23:00,30.0,19.0,-100.00,ESE,104,0.0,-999.0,64,0.00,,,0.00,,2013-01-16 02:23:00,
2013-01-15 21:33:00,30.0,19.0,-100.00,ESE,104,0.0,-999.0,64,0.00,,,0.00,,2013-01-16 02:33:00,
2013-01-15 21:43:00,30.0,19.0,-100.00,ESE,104,0.0,-999.0,64,0.00,,,0.00,,2013-01-16 02:43:00,
2013-01-15 22:03:00,30.0,19.0,-100.00,ENE,68,0.0,-999.0,62,0.00,,,0.00,,2013-01-16 03:03:00,
2013-01-15 22:12:00,30.0,19.0,-100.00,ENE,68,0.0,-999.0,62,0.00,,,0.00,,2013-01-16 03:12:00,
2013-01-15 22:22:00,30.0,19.0,-100.00,ENE,68,0.0,-999.0,62,0.00,,,0.00,,2013-01-16 03:22:00,
2013-01-15 22:33:00,30.0,19.0,-100.00,ENE,68,0.0,-999.0,62,0.00,,,0.00,,2013-01-16 03:33:00,
2013-01-15 22:43:00,30.0,19.0,-100.00,ENE,68,0.0,-999.0,62,0.00,,,0.00,,2013-01-16 03:43:00,